sensor_id;sensor_type;location;lat;lon;timestamp;P1;durP1;ratioP1;P2;durP2;ratioP2
35757;SDS011;21879;50.110;18.900;2023-12-28T00:07:46;31.40;;;28.10;;
35757;SDS011;21879;50.110;18.900;2023-12-28T00:18:14;27.90;;;24.80;;
35757;SDS011;21879;50.110;18.900;2023-12-28T00:28:47;28.90;;;25.60;;
35757;SDS011;21879;50.110;18.900;2023-12-28T00:39:15;28.50;;;25.50;;
35757;SDS011;21879;50.110;18.900;2023-12-28T00:49:42;27.70;;;23.60;;
35757;SDS011;21879;50.110;18.900;2023-12-28T01:00:11;27.00;;;23.50;;
35757;SDS011;21879;50.110;18.900;2023-12-28T01:10:39;29.30;;;24.50;;
35757;SDS011;21879;50.110;18.900;2023-12-28T01:21:07;29.50;;;26.20;;
35757;SDS011;21879;50.110;18.900;2023-12-28T01:31:35;29.20;;;25.90;;
35757;SDS011;21879;50.110;18.900;2023-12-28T01:42:04;27.70;;;24.70;;
35757;SDS011;21879;50.110;18.900;2023-12-28T01:52:32;28.20;;;25.20;;
35757;SDS011;21879;50.110;18.900;2023-12-28T02:03:00;28.60;;;25.80;;
35757;SDS011;21879;50.110;18.900;2023-12-28T02:13:28;27.10;;;24.30;;
35757;SDS011;21879;50.110;18.900;2023-12-28T02:23:56;27.90;;;24.90;;
35757;SDS011;21879;50.110;18.900;2023-12-28T02:34:26;27.40;;;24.40;;
35757;SDS011;21879;50.110;18.900;2023-12-28T02:44:58;26.20;;;23.50;;
35757;SDS011;21879;50.110;18.900;2023-12-28T02:55:25;27.70;;;23.30;;
35757;SDS011;21879;50.110;18.900;2023-12-28T03:05:53;30.60;;;23.00;;
35757;SDS011;21879;50.110;18.900;2023-12-28T03:16:21;26.80;;;23.90;;
35757;SDS011;21879;50.110;18.900;2023-12-28T03:26:49;24.80;;;21.80;;
35757;SDS011;21879;50.110;18.900;2023-12-28T03:37:17;30.00;;;25.60;;
35757;SDS011;21879;50.110;18.900;2023-12-28T03:47:45;27.70;;;23.90;;
35757;SDS011;21879;50.110;18.900;2023-12-28T03:58:12;27.70;;;24.70;;
35757;SDS011;21879;50.110;18.900;2023-12-28T04:08:40;27.80;;;23.50;;
35757;SDS011;21879;50.110;18.900;2023-12-28T04:19:08;29.50;;;26.40;;
35757;SDS011;21879;50.110;18.900;2023-12-28T04:29:37;27.90;;;24.90;;
35757;SDS011;21879;50.110;18.900;2023-12-28T04:40:05;27.40;;;24.50;;
35757;SDS011;21879;50.110;18.900;2023-12-28T04:50:34;28.50;;;24.30;;
35757;SDS011;21879;50.110;18.900;2023-12-28T05:01:04;25.60;;;22.80;;
35757;SDS011;21879;50.110;18.900;2023-12-28T05:11:31;24.30;;;21.80;;
35757;SDS011;21879;50.110;18.900;2023-12-28T05:21:59;25.50;;;22.20;;
35757;SDS011;21879;50.110;18.900;2023-12-28T05:32:29;25.10;;;21.70;;
35757;SDS011;21879;50.110;18.900;2023-12-28T05:42:56;23.40;;;20.40;;
35757;SDS011;21879;50.110;18.900;2023-12-28T05:53:24;22.50;;;19.30;;
35757;SDS011;21879;50.110;18.900;2023-12-28T06:03:53;21.10;;;18.90;;
35757;SDS011;21879;50.110;18.900;2023-12-28T06:14:21;20.40;;;18.30;;
35757;SDS011;21879;50.110;18.900;2023-12-28T06:24:48;21.10;;;17.90;;
35757;SDS011;21879;50.110;18.900;2023-12-28T06:35:16;18.80;;;15.50;;
35757;SDS011;21879;50.110;18.900;2023-12-28T06:45:43;19.30;;;16.20;;
35757;SDS011;21879;50.110;18.900;2023-12-28T06:56:11;16.60;;;14.50;;
35757;SDS011;21879;50.110;18.900;2023-12-28T07:06:39;15.50;;;13.60;;
35757;SDS011;21879;50.110;18.900;2023-12-28T07:17:07;15.50;;;13.70;;
35757;SDS011;21879;50.110;18.900;2023-12-28T07:27:37;14.30;;;12.20;;
35757;SDS011;21879;50.110;18.900;2023-12-28T07:38:06;15.00;;;12.00;;
35757;SDS011;21879;50.110;18.900;2023-12-28T07:48:33;13.80;;;12.20;;
35757;SDS011;21879;50.110;18.900;2023-12-28T07:59:01;14.40;;;11.00;;
35757;SDS011;21879;50.110;18.900;2023-12-28T08:09:31;13.90;;;10.70;;
35757;SDS011;21879;50.110;18.900;2023-12-28T08:20:00;13.90;;;10.70;;
35757;SDS011;21879;50.110;18.900;2023-12-28T08:30:28;11.20;;;9.70;;
35757;SDS011;21879;50.110;18.900;2023-12-28T08:40:56;15.60;;;10.90;;
35757;SDS011;21879;50.110;18.900;2023-12-28T08:51:24;14.70;;;12.50;;
35757;SDS011;21879;50.110;18.900;2023-12-28T09:01:54;15.10;;;12.00;;
35757;SDS011;21879;50.110;18.900;2023-12-28T09:12:35;14.50;;;12.00;;
35757;SDS011;21879;50.110;18.900;2023-12-28T09:23:03;13.80;;;11.70;;
35757;SDS011;21879;50.110;18.900;2023-12-28T09:33:32;12.40;;;9.70;;
35757;SDS011;21879;50.110;18.900;2023-12-28T09:44:03;11.40;;;9.60;;
35757;SDS011;21879;50.110;18.900;2023-12-28T09:54:37;14.00;;;10.70;;
35757;SDS011;21879;50.110;18.900;2023-12-28T10:05:06;17.80;;;12.20;;
35757;SDS011;21879;50.110;18.900;2023-12-28T10:15:38;14.30;;;11.80;;
35757;SDS011;21879;50.110;18.900;2023-12-28T10:26:06;13.50;;;10.50;;
35757;SDS011;21879;50.110;18.900;2023-12-28T10:36:34;10.70;;;8.70;;
35757;SDS011;21879;50.110;18.900;2023-12-28T10:47:05;10.90;;;8.60;;
35757;SDS011;21879;50.110;18.900;2023-12-28T10:57:39;13.80;;;11.50;;
35757;SDS011;21879;50.110;18.900;2023-12-28T11:08:13;14.90;;;13.20;;
35757;SDS011;21879;50.110;18.900;2023-12-28T11:18:44;11.40;;;9.90;;
35757;SDS011;21879;50.110;18.900;2023-12-28T11:29:13;10.70;;;7.90;;
35757;SDS011;21879;50.110;18.900;2023-12-28T11:39:46;9.30;;;7.60;;
35757;SDS011;21879;50.110;18.900;2023-12-28T11:50:16;9.00;;;7.20;;
35757;SDS011;21879;50.110;18.900;2023-12-28T12:00:44;8.80;;;6.40;;
35757;SDS011;21879;50.110;18.900;2023-12-28T12:11:13;7.50;;;5.70;;
35757;SDS011;21879;50.110;18.900;2023-12-28T12:21:43;8.00;;;5.80;;
35757;SDS011;21879;50.110;18.900;2023-12-28T12:32:11;7.60;;;5.30;;
35757;SDS011;21879;50.110;18.900;2023-12-28T12:42:39;6.40;;;5.50;;
35757;SDS011;21879;50.110;18.900;2023-12-28T12:53:08;8.60;;;5.80;;
35757;SDS011;21879;50.110;18.900;2023-12-28T13:03:36;8.10;;;6.40;;
35757;SDS011;21879;50.110;18.900;2023-12-28T13:14:04;6.90;;;5.40;;
35757;SDS011;21879;50.110;18.900;2023-12-28T13:24:32;34.90;;;30.90;;
35757;SDS011;21879;50.110;18.900;2023-12-28T13:35:00;12.50;;;10.10;;
35757;SDS011;21879;50.110;18.900;2023-12-28T13:45:28;11.70;;;9.80;;
35757;SDS011;21879;50.110;18.900;2023-12-28T13:55:56;9.40;;;8.00;;
35757;SDS011;21879;50.110;18.900;2023-12-28T14:06:24;9.30;;;7.50;;
35757;SDS011;21879;50.110;18.900;2023-12-28T14:16:52;11.40;;;8.00;;
35757;SDS011;21879;50.110;18.900;2023-12-28T14:27:20;9.00;;;6.90;;
35757;SDS011;21879;50.110;18.900;2023-12-28T14:37:48;9.50;;;6.40;;
35757;SDS011;21879;50.110;18.900;2023-12-28T14:48:16;9.10;;;7.40;;
35757;SDS011;21879;50.110;18.900;2023-12-28T14:58:44;8.30;;;6.30;;
35757;SDS011;21879;50.110;18.900;2023-12-28T15:09:13;8.40;;;6.00;;
35757;SDS011;21879;50.110;18.900;2023-12-28T15:19:41;7.80;;;5.50;;
35757;SDS011;21879;50.110;18.900;2023-12-28T15:30:09;11.50;;;7.50;;
35757;SDS011;21879;50.110;18.900;2023-12-28T15:40:38;11.90;;;10.40;;
35757;SDS011;21879;50.110;18.900;2023-12-28T15:51:07;14.90;;;12.30;;
35757;SDS011;21879;50.110;18.900;2023-12-28T16:01:35;13.90;;;11.70;;
35757;SDS011;21879;50.110;18.900;2023-12-28T16:12:04;12.10;;;9.60;;
35757;SDS011;21879;50.110;18.900;2023-12-28T16:22:33;10.30;;;8.30;;
35757;SDS011;21879;50.110;18.900;2023-12-28T16:33:02;15.00;;;8.30;;
35757;SDS011;21879;50.110;18.900;2023-12-28T16:43:32;9.20;;;8.30;;
35757;SDS011;21879;50.110;18.900;2023-12-28T16:54:01;23.40;;;20.50;;
35757;SDS011;21879;50.110;18.900;2023-12-28T17:04:29;15.60;;;13.10;;
35757;SDS011;21879;50.110;18.900;2023-12-28T17:14:58;16.10;;;12.00;;
35757;SDS011;21879;50.110;18.900;2023-12-28T17:25:29;12.10;;;10.10;;
35757;SDS011;21879;50.110;18.900;2023-12-28T17:36:05;14.50;;;9.90;;
35757;SDS011;21879;50.110;18.900;2023-12-28T17:46:40;14.50;;;9.70;;
35757;SDS011;21879;50.110;18.900;2023-12-28T17:57:12;13.00;;;9.70;;
35757;SDS011;21879;50.110;18.900;2023-12-28T18:07:40;10.40;;;8.50;;
35757;SDS011;21879;50.110;18.900;2023-12-28T18:18:08;11.50;;;8.90;;
35757;SDS011;21879;50.110;18.900;2023-12-28T18:28:36;29.90;;;25.40;;
35757;SDS011;21879;50.110;18.900;2023-12-28T18:39:04;14.50;;;11.00;;
35757;SDS011;21879;50.110;18.900;2023-12-28T18:49:32;11.50;;;9.80;;
35757;SDS011;21879;50.110;18.900;2023-12-28T19:00:00;12.50;;;9.20;;
35757;SDS011;21879;50.110;18.900;2023-12-28T19:10:27;10.60;;;8.50;;
35757;SDS011;21879;50.110;18.900;2023-12-28T19:20:55;11.10;;;9.50;;
35757;SDS011;21879;50.110;18.900;2023-12-28T19:31:23;13.40;;;9.10;;
35757;SDS011;21879;50.110;18.900;2023-12-28T19:41:51;38.70;;;30.20;;
35757;SDS011;21879;50.110;18.900;2023-12-28T19:52:19;17.20;;;14.70;;
35757;SDS011;21879;50.110;18.900;2023-12-28T20:02:48;16.00;;;13.20;;
35757;SDS011;21879;50.110;18.900;2023-12-28T20:13:16;15.20;;;13.40;;
35757;SDS011;21879;50.110;18.900;2023-12-28T20:23:44;44.80;;;39.60;;
35757;SDS011;21879;50.110;18.900;2023-12-28T20:34:12;17.80;;;14.70;;
35757;SDS011;21879;50.110;18.900;2023-12-28T20:44:40;20.80;;;18.60;;
35757;SDS011;21879;50.110;18.900;2023-12-28T20:55:08;15.60;;;11.70;;
35757;SDS011;21879;50.110;18.900;2023-12-28T21:05:36;13.60;;;11.30;;
35757;SDS011;21879;50.110;18.900;2023-12-28T21:16:05;16.00;;;12.60;;
35757;SDS011;21879;50.110;18.900;2023-12-28T21:26:33;12.60;;;10.90;;
35757;SDS011;21879;50.110;18.900;2023-12-28T21:37:01;11.00;;;9.80;;
35757;SDS011;21879;50.110;18.900;2023-12-28T21:47:29;11.00;;;9.60;;
35757;SDS011;21879;50.110;18.900;2023-12-28T21:57:57;10.80;;;8.50;;
35757;SDS011;21879;50.110;18.900;2023-12-28T22:08:26;12.80;;;9.70;;
35757;SDS011;21879;50.110;18.900;2023-12-28T22:18:54;9.80;;;7.30;;
35757;SDS011;21879;50.110;18.900;2023-12-28T22:29:22;12.10;;;7.90;;
35757;SDS011;21879;50.110;18.900;2023-12-28T22:39:50;9.40;;;7.30;;
35757;SDS011;21879;50.110;18.900;2023-12-28T22:50:18;8.60;;;7.00;;
35757;SDS011;21879;50.110;18.900;2023-12-28T23:00:46;9.60;;;6.40;;
35757;SDS011;21879;50.110;18.900;2023-12-28T23:11:14;8.20;;;7.10;;
35757;SDS011;21879;50.110;18.900;2023-12-28T23:21:42;8.10;;;6.40;;
35757;SDS011;21879;50.110;18.900;2023-12-28T23:32:23;8.40;;;7.30;;
35757;SDS011;21879;50.110;18.900;2023-12-28T23:42:51;8.40;;;7.20;;
35757;SDS011;21879;50.110;18.900;2023-12-28T23:53:18;10.00;;;7.50;;
